Time;durP1;ratioP1;P1;durP2;ratioP2;P2;SDS_P1;SDS_P2;PMS_P1;PMS_P2;Temp;Humidity;BMP_temperature;BMP_pressure;BME280_temperature;BME280_humidity;BME280_pressure;Samples;Min_cycle;Max_cycle;Signal;HPM_P1;HPM_P2
2024/03/20 00:01:50;;;;;;;32.88;30.23;;;;;;;-143.39;100.00;64013.03;5085432;28;20056;-69
2024/03/20 00:04:42;;;;;;;33.35;31.23;;;;;;;-143.39;100.00;64013.03;5084421;28;20052;-70
2024/03/20 00:07:32;;;;;;;30.60;28.60;;;;;;;-143.39;100.00;64013.03;5086375;28;20109;-70
2024/03/20 00:10:43;;;;;;;29.60;27.55;;;;;;;-143.39;100.00;64013.03;5083286;28;20052;-70
2024/03/20 00:14:09;;;;;;;34.00;31.60;;;;;;;-143.39;100.00;64013.03;5086677;28;20507;-70
2024/03/20 00:17:35;;;;;;;30.65;28.75;;;;;;;-143.39;100.00;64013.03;5084723;28;20137;-70
2024/03/20 00:21:01;;;;;;;29.40;27.35;;;;;;;-143.39;100.00;64013.03;5085371;28;20105;-70
2024/03/20 00:24:28;;;;;;;29.38;27.20;;;;;;;-143.39;100.00;64013.03;5080093;28;20052;-70
2024/03/20 00:27:53;;;;;;;32.88;30.73;;;;;;;-143.39;100.00;64013.03;5086667;28;20373;-69
2024/03/20 00:31:19;;;;;;;31.23;29.23;;;;;;;-143.39;100.00;64013.03;5087655;28;20048;-72
2024/03/20 00:34:44;;;;;;;31.45;29.42;;;;;;;-143.39;100.00;64013.03;5086929;28;20044;-72
2024/03/20 00:38:10;;;;;;;30.75;28.85;;;;;;;-143.39;100.00;64013.03;5079854;28;20056;-74
2024/03/20 00:40:38;;;;;;;29.98;28.08;;;;;;;-143.39;100.00;64013.03;5087765;28;20048;-72
2024/03/20 00:43:05;;;;;;;29.05;27.35;;;;;;;-143.39;100.00;64013.03;5090443;28;20123;-73
2024/03/20 00:45:33;;;;;;;33.55;31.55;;;;;;;-143.39;100.00;64013.03;5090682;28;20124;-70
2024/03/20 00:48:00;;;;;;;30.40;28.60;;;;;;;-1.78;100.00;101455.63;5090109;28;20408;-72
2024/03/20 00:50:27;;;;;;;33.78;31.58;;;;;;;-1.68;100.00;101459.22;5091019;28;20435;-70
2024/03/20 00:52:54;;;;;;;34.90;31.63;;;;;;;-1.59;100.00;101455.16;5088837;28;20105;-73
2024/03/20 00:55:25;;;;;;;30.75;28.95;;;;;;;-1.47;100.00;101456.88;5091029;28;20109;-72
2024/03/20 00:57:54;;;;;;;31.88;30.08;;;;;;;-1.47;100.00;101456.88;5091015;28;20055;-73
2024/03/20 01:00:21;;;;;;;32.17;30.20;;;;;;;-1.67;100.00;101447.84;5084586;28;20060;-73
2024/03/20 01:02:48;;;;;;;29.88;28.05;;;;;;;-1.70;100.00;101450.69;5090974;28;21095;-73
2024/03/20 01:05:18;;;;;;;30.95;28.65;;;;;;;-1.72;100.00;101452.59;5088788;28;20053;-73
2024/03/20 01:07:45;;;;;;;30.25;28.08;;;;;;;-1.79;100.00;101447.91;5092000;28;20116;-73
2024/03/20 01:10:12;;;;;;;30.15;27.92;;;;;;;-1.77;100.00;101457.28;5092726;28;20052;-73
2024/03/20 01:12:39;;;;;;;28.75;27.20;;;;;;;-1.74;100.00;101457.06;5093000;28;20056;-73
2024/03/20 01:15:09;;;;;;;31.42;28.98;;;;;;;-1.96;100.00;101459.50;5088050;28;20052;-73
2024/03/20 01:17:36;;;;;;;31.70;28.75;;;;;;;-1.74;100.00;101461.44;5089611;28;20045;-73
2024/03/20 01:20:05;;;;;;;30.42;28.63;;;;;;;-1.60;100.00;101453.50;5089026;28;20477;-73
2024/03/20 01:22:36;;;;;;;27.20;25.70;;;;;;;-1.28;100.00;101458.16;5078840;28;20080;-73
2024/03/20 01:25:05;;;;;;;28.50;26.80;;;;;;;-1.20;100.00;101461.88;5088630;28;20043;-73
2024/03/20 01:27:32;;;;;;;28.42;26.63;;;;;;;-1.02;100.00;101462.31;5091595;28;20129;-73
2024/03/20 01:29:59;;;;;;;31.88;29.98;;;;;;;-1.07;100.00;101459.19;5091276;28;20515;-73
2024/03/20 01:32:27;;;;;;;31.15;29.05;;;;;;;-0.81;100.00;101456.47;5089095;28;20052;-73
2024/03/20 01:34:54;;;;;;;28.55;26.77;;;;;;;-0.83;100.00;101460.97;5090410;28;20492;-73
2024/03/20 01:37:21;;;;;;;29.10;27.13;;;;;;;-0.86;100.00;101458.56;5086189;28;20049;-73
2024/03/20 01:39:48;;;;;;;28.70;26.80;;;;;;;-0.90;100.00;101451.94;5089058;28;20051;-73
2024/03/20 01:42:16;;;;;;;30.52;28.35;;;;;;;-0.86;100.00;101459.41;5090725;28;20043;-73
2024/03/20 01:44:48;;;;;;;28.52;26.70;;;;;;;-1.04;100.00;101461.59;5090702;28;20280;-73
2024/03/20 01:47:16;;;;;;;27.45;25.15;;;;;;;-0.94;100.00;101461.72;5088407;28;20060;-72
2024/03/20 01:49:45;;;;;;;30.23;28.33;;;;;;;-1.03;100.00;101460.66;5087107;28;20984;-73
2024/03/20 01:52:13;;;;;;;30.27;28.38;;;;;;;-1.40;100.00;101460.69;5089277;28;20576;-73
2024/03/20 01:54:40;;;;;;;29.05;27.27;;;;;;;-1.53;100.00;101454.72;5089811;28;20052;-73
2024/03/20 01:57:09;;;;;;;28.95;27.15;;;;;;;-1.48;100.00;101451.78;5087273;28;20040;-73
2024/03/20 01:59:36;;;;;;;29.52;27.63;;;;;;;-1.47;100.00;101458.66;5089303;28;20080;-72
2024/03/20 02:02:03;;;;;;;28.75;26.85;;;;;;;-1.33;100.00;101450.69;5090582;28;20097;-73
2024/03/20 02:04:30;;;;;;;28.67;26.27;;;;;;;-1.19;100.00;101460.09;5089753;28;20060;-73
2024/03/20 02:06:58;;;;;;;25.95;24.30;;;;;;;-1.16;100.00;101457.28;5088856;28;20059;-72
2024/03/20 02:09:25;;;;;;;28.40;26.17;;;;;;;-1.13;100.00;101458.81;5090432;28;20108;-73
2024/03/20 02:11:53;;;;;;;29.38;27.58;;;;;;;-1.28;100.00;101458.16;5083876;28;20052;-72
2024/03/20 02:14:20;;;;;;;29.75;27.85;;;;;;;-1.14;100.00;101459.78;5081875;28;20075;-73
2024/03/20 02:16:50;;;;;;;26.98;25.23;;;;;;;-0.95;100.00;101457.47;5088065;28;20113;-72
2024/03/20 02:19:17;;;;;;;26.05;24.33;;;;;;;-0.86;100.00;101461.19;5085397;28;20098;-72
2024/03/20 02:21:45;;;;;;;28.45;26.48;;;;;;;-0.65;100.00;101462.19;5089564;28;20101;-72
2024/03/20 02:24:12;;;;;;;29.70;27.52;;;;;;;-0.77;100.00;101469.16;5086141;28;20047;-72
2024/03/20 02:26:39;;;;;;;26.63;24.92;;;;;;;-0.86;100.00;101463.78;5090322;28;20047;-72
2024/03/20 02:29:08;;;;;;;25.58;23.98;;;;;;;-0.92;100.00;101468.50;5085337;28;20048;-73
2024/03/20 02:31:35;;;;;;;26.75;25.05;;;;;;;-0.57;100.00;101466.84;5087296;28;20501;-73
2024/03/20 02:34:02;;;;;;;30.25;28.45;;;;;;;-0.65;100.00;101477.03;5087740;28;20048;-72
2024/03/20 02:36:29;;;;;;;31.20;29.27;;;;;;;-0.62;100.00;101471.56;5089921;28;20044;-73
2024/03/20 02:38:57;;;;;;;32.97;30.40;;;;;;;-0.56;100.00;101473.72;5080254;28;20048;-73
2024/03/20 02:41:27;;;;;;;31.48;29.20;;;;;;;-0.50;100.00;101475.88;5089684;28;20121;-73
2024/03/20 02:43:54;;;;;;;31.83;29.83;;;;;;;-0.48;100.00;101476.59;5086911;28;20538;-73
2024/03/20 02:46:21;;;;;;;37.08;34.33;;;;;;;-0.38;100.00;101468.91;5088953;28;20052;-73
2024/03/20 02:48:48;;;;;;;30.95;28.85;;;;;;;-0.53;100.00;101476.09;5088441;28;20101;-70
2024/03/20 02:51:15;;;;;;;29.65;27.75;;;;;;;-0.34;100.00;101476.38;5086839;28;20087;-72
2024/03/20 02:53:42;;;;;;;31.35;29.33;;;;;;;-0.29;100.00;101479.47;5088861;28;20570;-71
2024/03/20 02:56:11;;;;;;;31.50;29.33;;;;;;;-0.20;100.00;101475.31;5087895;28;20089;-70
2024/03/20 02:58:38;;;;;;;28.75;26.90;;;;;;;-0.32;100.00;101476.25;5085497;28;20078;-70
2024/03/20 03:01:05;;;;;;;28.08;26.27;;;;;;;-0.59;100.00;101481.78;5082002;28;20120;-69
2024/03/20 03:03:32;;;;;;;30.08;28.17;;;;;;;-0.44;100.00;101480.63;5086665;28;20048;-69
2024/03/20 03:05:59;;;;;;;29.70;27.80;;;;;;;-0.32;100.00;101481.47;5081128;28;20044;-71
2024/03/20 03:08:27;;;;;;;28.77;26.88;;;;;;;-0.19;100.00;101491.81;5087696;28;20048;-70
2024/03/20 03:10:54;;;;;;;28.30;26.45;;;;;;;-0.41;100.00;101487.41;5087849;28;20047;-70
2024/03/20 03:13:23;;;;;;;29.40;27.50;;;;;;;0.03;100.00;101486.63;5087923;28;20513;-71
2024/03/20 03:15:50;;;;;;;29.60;27.70;;;;;;;-0.08;100.00;101489.22;5086830;28;20572;-70
2024/03/20 03:18:16;;;;;;;29.15;27.25;;;;;;;0.14;100.00;101494.44;5087232;28;20048;-69
2024/03/20 03:20:43;;;;;;;32.00;29.70;;;;;;;0.25;100.00;101503.25;5086301;28;20052;-69
2024/03/20 03:23:10;;;;;;;31.15;28.95;;;;;;;0.32;100.00;101500.03;5082545;28;20052;-69
2024/03/20 03:25:37;;;;;;;33.17;30.48;;;;;;;0.16;100.00;101495.16;5081480;28;20048;-69
2024/03/20 03:28:05;;;;;;;30.02;27.92;;;;;;;0.29;100.00;101487.19;5085903;28;20560;-69
2024/03/20 03:30:33;;;;;;;28.92;26.90;;;;;;;0.29;100.00;101495.03;5081627;28;20523;-70
2024/03/20 03:33:00;;;;;;;30.95;28.85;;;;;;;0.31;100.00;101498.38;5085595;28;20056;-70
2024/03/20 03:35:27;;;;;;;29.90;28.00;;;;;;;0.26;100.00;101497.88;5084565;28;20043;-72
2024/03/20 03:37:55;;;;;;;32.45;30.08;;;;;;;0.43;100.00;101501.81;5085638;28;20047;-70
2024/03/20 03:40:22;;;;;;;31.08;28.92;;;;;;;0.38;100.00;101503.94;5086837;28;20058;-70
2024/03/20 03:42:49;;;;;;;30.17;28.08;;;;;;;0.40;100.00;101509.88;5087615;28;20488;-70
2024/03/20 03:45:16;;;;;;;32.58;30.35;;;;;;;0.36;100.00;101511.06;5084176;28;20098;-71
2024/03/20 03:47:45;;;;;;;31.52;29.42;;;;;;;0.43;100.00;101512.25;5087760;28;20294;-70
2024/03/20 03:50:12;;;;;;;29.23;27.27;;;;;;;0.26;100.00;101513.56;5082560;28;20055;-70
2024/03/20 03:52:40;;;;;;;29.80;27.70;;;;;;;0.23;100.00;101519.84;5086239;28;20048;-72
2024/03/20 03:55:08;;;;;;;34.10;31.27;;;;;;;0.26;100.00;101518.78;5087262;28;20105;-72
2024/03/20 03:57:35;;;;;;;34.63;32.00;;;;;;;-0.02;100.00;101526.16;5084533;28;20087;-73
2024/03/20 04:00:03;;;;;;;28.67;26.63;;;;;;;-0.10;100.00;101514.63;5086719;28;20052;-72
2024/03/20 04:02:31;;;;;;;28.45;26.40;;;;;;;-0.04;100.00;101522.81;5080741;28;20041;-72
2024/03/20 04:04:59;;;;;;;28.83;26.88;;;;;;;-0.17;100.00;101523.88;5088596;28;20063;-72
2024/03/20 04:07:27;;;;;;;29.85;27.00;;;;;;;-0.27;100.00;101524.56;5087114;28;20641;-72
2024/03/20 04:09:54;;;;;;;28.35;25.80;;;;;;;-0.53;100.00;101530.91;5091307;28;20686;-72
2024/03/20 04:12:21;;;;;;;26.05;24.35;;;;;;;-0.46;100.00;101529.50;5091855;28;20435;-69
2024/03/20 04:14:48;;;;;;;27.60;25.48;;;;;;;-0.36;100.00;101533.09;5093992;28;20052;-70
2024/03/20 04:17:15;;;;;;;26.83;25.30;;;;;;;-0.33;100.00;101539.88;5087238;28;20200;-70
2024/03/20 04:19:42;;;;;;;24.40;23.00;;;;;;;-0.32;100.00;101536.31;5089350;28;20071;-69
2024/03/20 04:22:11;;;;;;;25.58;23.75;;;;;;;-0.36;100.00;101543.53;5086756;28;20064;-69
2024/03/20 04:24:38;;;;;;;25.60;24.10;;;;;;;-0.54;100.00;101540.53;5086696;28;20078;-70
2024/03/20 04:27:06;;;;;;;27.33;25.83;;;;;;;-0.48;100.00;101544.47;5093017;28;20056;-70
2024/03/20 04:29:35;;;;;;;25.20;23.77;;;;;;;-0.73;100.00;101551.50;5094321;28;20450;-72
2024/03/20 04:32:02;;;;;;;27.20;25.52;;;;;;;-0.76;100.00;101554.28;5089363;28;20062;-72
2024/03/20 04:34:32;;;;;;;25.48;23.88;;;;;;;-0.45;100.00;101554.66;5093412;28;20048;-70
2024/03/20 04:36:59;;;;;;;24.08;22.67;;;;;;;-0.49;100.00;101559.25;5091474;28;20113;-70
2024/03/20 04:39:32;;;;;;;22.48;21.05;;;;;;;-0.48;100.00;101566.16;5095275;28;20044;-70
2024/03/20 04:42:00;;;;;;;23.52;22.13;;;;;;;-0.47;100.00;101562.59;5092243;28;20044;-72
2024/03/20 04:44:27;;;;;;;20.95;19.52;;;;;;;-0.60;100.00;101569.69;5093604;28;20549;-70
2024/03/20 04:46:54;;;;;;;24.02;21.70;;;;;;;-0.51;100.00;101578.63;5092723;28;20043;-70
2024/03/20 04:49:21;;;;;;;24.20;22.45;;;;;;;-0.66;100.00;101574.53;5093028;28;20101;-70
2024/03/20 04:51:48;;;;;;;20.67;19.48;;;;;;;-0.53;100.00;101585.72;5092136;28;20081;-71
2024/03/20 04:54:18;;;;;;;23.02;21.30;;;;;;;-0.56;100.00;101580.72;5094377;28;20056;-73
2024/03/20 04:56:46;;;;;;;23.38;21.88;;;;;;;-0.48;100.00;101578.38;5091181;28;20054;-73
2024/03/20 04:59:13;;;;;;;21.63;20.13;;;;;;;-0.30;100.00;101590.06;5093005;28;20492;-70
2024/03/20 05:01:40;;;;;;;22.42;21.02;;;;;;;-0.24;100.00;101592.22;5093515;28;20040;-73
2024/03/20 05:04:07;;;;;;;24.73;22.67;;;;;;;-0.28;100.00;101596.00;5090312;28;20104;-73
2024/03/20 05:06:34;;;;;;;21.13;19.83;;;;;;;-0.30;100.00;101597.91;5089242;28;20059;-71
2024/03/20 05:09:04;;;;;;;21.75;20.38;;;;;;;-0.28;100.00;101603.00;5093188;28;20058;-70
2024/03/20 05:11:31;;;;;;;24.55;22.67;;;;;;;-0.13;100.00;101598.41;5090493;28;20127;-70
2024/03/20 05:14:00;;;;;;;23.42;21.92;;;;;;;0.01;100.00;101595.63;5088786;28;20048;-73
2024/03/20 05:16:28;;;;;;;22.35;20.95;;;;;;;0.10;100.00;101596.69;5084735;28;20052;-70
2024/03/20 05:18:54;;;;;;;23.15;21.55;;;;;;;0.07;100.00;101603.00;5088858;28;20503;-73
2024/03/20 05:21:21;;;;;;;22.42;20.92;;;;;;;0.04;100.00;101610.22;5089820;28;20039;-71
2024/03/20 05:23:47;;;;;;;23.30;21.83;;;;;;;0.17;100.00;101606.56;5084839;28;20221;-73
2024/03/20 05:26:17;;;;;;;22.83;21.42;;;;;;;0.15;100.00;101608.47;5092634;28;20052;-73
2024/03/20 05:28:43;;;;;;;24.65;23.15;;;;;;;0.24;100.00;101612.13;5081886;28;20047;-71
2024/03/20 05:31:27;;;;;;;22.92;21.60;;;;;;;0.29;100.00;101612.63;5090079;28;20459;-70
2024/03/20 05:33:53;;;;;;;23.40;21.90;;;;;;;0.45;100.00;101614.91;5088216;28;20126;-73
2024/03/20 05:36:20;;;;;;;24.52;22.80;;;;;;;0.49;100.00;101621.56;5087111;28;20055;-70
2024/03/20 05:38:46;;;;;;;23.80;22.10;;;;;;;0.36;100.00;101621.66;5089459;28;20105;-73
2024/03/20 05:41:13;;;;;;;26.42;24.63;;;;;;;0.57;100.00;101620.97;5087920;28;20501;-73
2024/03/20 05:43:40;;;;;;;25.35;23.65;;;;;;;0.80;100.00;101634.88;5088054;28;20455;-73
2024/03/20 05:46:09;;;;;;;23.58;22.17;;;;;;;0.62;100.00;101621.44;5091371;28;20069;-73
2024/03/20 05:48:36;;;;;;;26.30;24.60;;;;;;;0.94;100.00;101626.78;5088900;28;20113;-73
2024/03/20 05:51:04;;;;;;;23.83;22.13;;;;;;;0.84;100.00;101623.22;5086981;28;20079;-74
2024/03/20 05:53:30;;;;;;;23.58;22.08;;;;;;;0.97;100.00;101623.94;5089608;28;20491;-73
2024/03/20 05:55:58;;;;;;;24.42;22.92;;;;;;;1.11;100.00;101631.50;5091527;28;20106;-73
2024/03/20 05:58:24;;;;;;;28.00;26.02;;;;;;;1.38;100.00;101638.94;5087046;28;20124;-73
2024/03/20 06:00:51;;;;;;;27.27;25.58;;;;;;;1.71;100.00;101636.31;5090332;28;20139;-74
2024/03/20 06:03:18;;;;;;;27.77;25.88;;;;;;;1.53;100.00;101625.56;5088296;28;20488;-73
2024/03/20 06:05:47;;;;;;;26.45;24.75;;;;;;;1.73;100.00;101624.78;5089594;28;20048;-73
2024/03/20 06:08:15;;;;;;;27.73;25.92;;;;;;;1.98;100.00;101636.66;5084568;28;20049;-73
2024/03/20 06:10:42;;;;;;;28.08;26.17;;;;;;;1.98;100.00;101636.66;5087821;28;20097;-73
2024/03/20 06:13:08;;;;;;;28.63;26.52;;;;;;;2.09;100.00;101642.78;5090800;28;20874;-73
2024/03/20 06:15:38;;;;;;;31.65;29.50;;;;;;;2.15;100.00;101644.91;5088783;28;20105;-73
2024/03/20 06:18:05;;;;;;;31.13;28.92;;;;;;;2.57;100.00;101640.44;5089182;28;20044;-71
2024/03/20 06:20:32;;;;;;;33.08;30.55;;;;;;;2.58;100.00;101643.91;5088820;28;20151;-72
2024/03/20 06:23:04;;;;;;;34.05;31.40;;;;;;;2.89;100.00;101642.09;5089213;28;20117;-73
2024/03/20 06:25:31;;;;;;;;;;;;;;;2.85;100.00;101643.34;5078673;28;20044;-72
2024/03/20 06:28:00;;;;;;;33.90;31.40;;;;;;;3.31;100.00;101647.19;5098779;28;19980;-72
2024/03/20 06:30:27;;;;;;;34.05;31.55;;;;;;;3.22;100.00;101648.81;5090230;28;20050;-72
2024/03/20 06:32:53;;;;;;;34.75;32.25;;;;;;;3.23;100.00;101650.47;5087830;28;20056;-72
2024/03/20 06:35:20;;;;;;;36.10;33.60;;;;;;;3.64;100.00;101635.47;5089969;28;20502;-72
2024/03/20 06:37:49;;;;;;;35.58;33.28;;;;;;;3.78;100.00;101648.19;5088850;28;20477;-72
2024/03/20 06:40:18;;;;;;;38.72;35.90;;;;;;;3.85;100.00;101643.22;5089552;28;20048;-72
2024/03/20 06:42:45;;;;;;;41.17;38.58;;;;;;;3.92;100.00;101646.13;5083265;28;20051;-70
2024/03/20 06:45:12;;;;;;;38.10;35.70;;;;;;;4.45;100.00;101653.47;5086932;28;20055;-71
2024/03/20 06:47:38;;;;;;;36.75;34.45;;;;;;;4.36;100.00;101657.81;5088011;28;20117;-70
2024/03/20 06:50:08;;;;;;;36.90;34.60;;;;;;;4.67;100.00;101654.94;5086027;28;20075;-70
2024/03/20 06:52:38;;;;;;;35.15;32.95;;;;;;;4.23;100.00;101654.63;5084328;28;20434;-69
2024/03/20 06:55:14;;;;;;;35.53;33.33;;;;;;;4.76;100.00;101654.91;5084921;28;20511;-70
2024/03/20 06:57:42;;;;;;;40.58;36.08;;;;;;;4.34;100.00;101657.13;5088629;28;20055;-71
2024/03/20 07:00:17;;;;;;;39.15;36.55;;;;;;;5.00;100.00;101650.91;5089084;28;20094;-72
2024/03/20 07:02:43;;;;;;;36.55;34.25;;;;;;;4.50;100.00;101649.44;5088045;28;20054;-72
2024/03/20 07:05:10;;;;;;;39.22;36.53;;;;;;;6.54;100.00;101648.00;5084990;28;20056;-71
2024/03/20 07:07:36;;;;;;;36.45;34.05;;;;;;;7.46;100.00;101646.34;5087038;28;20052;-69
2024/03/20 07:10:04;;;;;;;39.58;37.17;;;;;;;7.42;100.00;101655.59;5086868;28;20222;-70
2024/03/20 07:12:30;;;;;;;38.38;35.95;;;;;;;5.27;100.00;101664.06;5087749;28;20503;-69
2024/03/20 07:14:59;;;;;;;42.88;40.03;;;;;;;5.01;100.00;101671.00;5089598;28;20063;-72
2024/03/20 07:17:25;;;;;;;50.63;47.63;;;;;;;4.53;100.00;101669.38;5086865;28;20063;-69
2024/03/20 07:19:54;;;;;;;38.95;36.42;;;;;;;5.23;100.00;101675.91;5087998;28;20044;-70
2024/03/20 07:22:21;;;;;;;36.08;33.67;;;;;;;4.70;100.00;101675.72;5086160;28;20087;-69
2024/03/20 07:24:48;;;;;;;36.45;34.00;;;;;;;4.62;100.00;101678.22;5081530;28;20045;-69
2024/03/20 07:27:14;;;;;;;37.30;34.80;;;;;;;5.26;100.00;101675.59;5087278;28;20089;-69
2024/03/20 07:29:42;;;;;;;35.55;33.15;;;;;;;5.18;100.00;101683.41;5087392;28;20130;-69
2024/03/20 07:32:11;;;;;;;39.33;36.72;;;;;;;5.84;100.00;101679.63;5086749;28;20104;-70
2024/03/20 07:34:38;;;;;;;38.67;36.20;;;;;;;7.33;100.00;101677.72;5085966;28;20059;-70
2024/03/20 07:37:04;;;;;;;45.25;42.45;;;;;;;7.70;100.00;101674.66;5087165;28;20048;-73
2024/03/20 07:39:33;;;;;;;40.47;38.08;;;;;;;7.29;100.00;101679.00;5088712;28;20044;-72
2024/03/20 07:42:03;;;;;;;41.30;38.70;;;;;;;8.80;100.00;101683.00;5083039;28;20143;-71
2024/03/20 07:44:30;;;;;;;39.30;36.60;;;;;;;7.76;100.00;101675.81;5085844;28;20063;-70
2024/03/20 07:46:58;;;;;;;36.63;34.13;;;;;;;8.04;100.00;101673.66;5088015;28;20040;-72
2024/03/20 07:49:26;;;;;;;37.90;35.30;;;;;;;7.22;100.00;101678.00;5088424;28;20048;-72
2024/03/20 07:51:54;;;;;;;37.88;35.35;;;;;;;6.57;100.00;101678.56;5088432;28;20047;-72
2024/03/20 07:54:23;;;;;;;39.00;36.40;;;;;;;5.30;100.00;101686.66;5085938;28;20151;-72
2024/03/20 07:56:51;;;;;;;40.35;37.55;;;;;;;6.35;100.00;101683.34;5089033;28;20058;-72
2024/03/20 07:59:17;;;;;;;39.53;36.90;;;;;;;7.19;100.00;101673.88;5087693;28;20062;-72
2024/03/20 08:01:44;;;;;;;41.20;38.50;;;;;;;6.42;100.00;101680.94;5088547;28;20063;-73
2024/03/20 08:04:11;;;;;;;39.47;36.78;;;;;;;6.52;100.00;101672.91;5088021;28;20485;-72
2024/03/20 08:06:39;;;;;;;40.55;37.85;;;;;;;7.63;100.00;101668.38;5087107;28;20134;-72
2024/03/20 08:09:06;;;;;;;43.83;40.75;;;;;;;7.08;100.00;101676.78;5087532;28;20077;-72
2024/03/20 08:11:33;;;;;;;40.97;38.17;;;;;;;7.97;100.00;101664.75;5087621;28;20132;-72
2024/03/20 08:14:07;;;;;;;37.58;35.15;;;;;;;7.51;100.00;101667.03;5088212;28;20593;-72
2024/03/20 08:16:35;;;;;;;39.08;36.47;;;;;;;6.61;100.00;101674.59;5085101;28;20062;-73
2024/03/20 08:19:02;;;;;;;43.55;40.63;;;;;;;7.44;100.00;101674.75;5088042;28;20040;-73
2024/03/20 08:21:29;;;;;;;41.20;38.50;;;;;;;7.83;100.00;101665.41;5086600;28;20044;-73
2024/03/20 08:23:57;;;;;;;43.60;40.75;;;;;;;7.51;100.00;101667.84;5086830;28;20149;-71
2024/03/20 08:26:24;;;;;;;41.92;39.22;;;;;;;6.71;100.00;101677.13;5082002;28;20048;-71
2024/03/20 08:28:50;;;;;;;42.13;39.33;;;;;;;8.60;100.00;101681.75;5084574;28;20052;-72
2024/03/20 08:31:17;;;;;;;42.20;39.50;;;;;;;9.12;100.00;101675.94;5084454;28;20060;-70
2024/03/20 08:33:44;;;;;;;39.15;36.50;;;;;;;8.44;100.00;101669.34;5086527;28;20056;-70
2024/03/20 08:36:12;;;;;;;38.90;36.30;;;;;;;8.97;100.00;101673.16;5084421;28;20051;-71
2024/03/20 08:38:38;;;;;;;44.50;41.60;;;;;;;8.59;100.00;101675.59;5084361;28;20052;-71
2024/03/20 08:41:07;;;;;;;43.75;40.72;;;;;;;8.77;100.00;101671.91;5085794;28;20622;-71
2024/03/20 08:43:33;;;;;;;39.58;36.90;;;;;;;6.58;100.00;101675.75;5081484;28;20109;-71
2024/03/20 08:46:01;;;;;;;40.35;37.75;;;;;;;7.11;100.00;101679.97;5086783;28;20142;-70
2024/03/20 08:48:28;;;;;;;41.78;39.28;;;;;;;8.78;100.00;101673.59;5083170;28;20052;-71
2024/03/20 08:50:55;;;;;;;41.08;38.75;;;;;;;9.40;100.00;101685.03;5086517;28;20055;-71
2024/03/20 08:53:21;;;;;;;40.53;38.28;;;;;;;8.32;100.00;101676.81;5084899;28;20052;-70
2024/03/20 08:55:48;;;;;;;43.35;40.75;;;;;;;10.73;100.00;101683.81;5085742;28;20048;-71
2024/03/20 08:58:16;;;;;;;41.85;39.35;;;;;;;10.47;100.00;101674.47;5085034;28;20052;-73
2024/03/20 09:00:43;;;;;;;42.47;40.00;;;;;;;11.84;100.00;101679.97;5091558;28;20040;-73
2024/03/20 09:03:10;;;;;;;39.38;37.17;;;;;;;12.42;100.00;101669.22;5091500;28;20048;-73
2024/03/20 09:05:43;;;;;;;35.40;33.30;;;;;;;11.53;100.00;101674.13;5092529;28;20052;-73
2024/03/20 09:08:09;;;;;;;37.25;34.83;;;;;;;9.37;100.00;101674.78;5090829;28;20056;-71
2024/03/20 09:10:37;;;;;;;40.28;36.88;;;;;;;11.10;100.00;101658.94;5089805;28;20158;-70
2024/03/20 09:13:03;;;;;;;33.40;31.20;;;;;;;11.92;100.00;101663.06;5088230;28;20097;-71
2024/03/20 09:15:32;;;;;;;31.45;29.55;;;;;;;10.05;100.00;101657.22;5089853;28;20090;-70
2024/03/20 09:17:58;;;;;;;37.20;34.80;;;;;;;10.29;100.00;101658.06;5090134;28;20101;-70
2024/03/20 09:20:30;;;;;;;39.63;37.22;;;;;;;10.54;100.00;101658.63;5089197;28;20062;-73
2024/03/20 09:23:00;;;;;;;31.90;29.90;;;;;;;10.81;100.00;101661.66;5089933;28;20121;-73
2024/03/20 09:25:27;;;;;;;35.13;32.83;;;;;;;11.53;100.00;101659.00;5086480;28;20464;-70
2024/03/20 09:27:55;;;;;;;37.80;35.50;;;;;;;13.00;100.00;101651.06;5087552;28;20052;-72
2024/03/20 09:30:24;;;;;;;35.08;32.67;;;;;;;11.34;100.00;101654.28;5087954;28;20124;-71
2024/03/20 09:32:52;;;;;;;31.80;29.80;;;;;;;12.04;100.00;101645.59;5089453;28;20048;-72
2024/03/20 09:35:20;;;;;;;33.50;31.33;;;;;;;10.17;100.00;101648.84;5089988;28;20063;-72
2024/03/20 09:37:47;;;;;;;32.90;30.73;;;;;;;12.52;100.00;101650.19;5090837;28;20043;-73
2024/03/20 09:40:22;;;;;;;37.95;35.65;;;;;;;14.01;100.00;101641.41;5091842;28;20059;-72
2024/03/20 09:42:51;;;;;;;33.45;31.35;;;;;;;12.93;100.00;101641.41;5089026;28;20778;-73
2024/03/20 09:45:19;;;;;;;31.15;29.10;;;;;;;9.87;100.00;101643.47;5086651;28;20052;-73
2024/03/20 09:47:48;;;;;;;36.33;34.03;;;;;;;10.96;100.00;101639.34;5091280;28;20417;-72
2024/03/20 09:50:17;;;;;;;40.42;37.45;;;;;;;12.18;100.00;101637.69;5086652;28;20060;-73
2024/03/20 09:52:49;;;;;;;39.03;36.63;;;;;;;9.95;100.00;101638.06;5088109;28;20048;-72
2024/03/20 09:55:17;;;;;;;37.15;35.00;;;;;;;13.37;100.00;101642.78;5087804;28;20044;-72
2024/03/20 09:57:45;;;;;;;38.45;36.15;;;;;;;12.62;100.00;101637.38;5088776;28;20101;-72
2024/03/20 10:00:16;;;;;;;34.38;32.38;;;;;;;10.65;100.00;101636.06;5087418;28;20159;-72
2024/03/20 10:02:43;;;;;;;33.97;31.98;;;;;;;12.16;100.00;101632.53;5089026;28;20055;-72
2024/03/20 10:05:13;;;;;;;37.92;35.75;;;;;;;13.39;100.00;101630.91;5089972;28;20044;-72
2024/03/20 10:07:41;;;;;;;32.53;30.40;;;;;;;12.72;100.00;101631.66;5089305;28;20047;-72
2024/03/20 10:10:09;;;;;;;35.45;33.25;;;;;;;13.05;100.00;101631.81;5088760;28;20127;-72
2024/03/20 10:12:36;;;;;;;38.60;36.30;;;;;;;11.98;100.00;101632.19;5089538;28;20047;-72
2024/03/20 10:15:07;;;;;;;36.15;33.95;;;;;;;13.16;100.00;101625.91;5084049;28;20105;-72
2024/03/20 10:17:34;;;;;;;38.03;35.92;;;;;;;12.36;100.00;101624.69;5083293;28;20044;-72
2024/03/20 10:20:02;;;;;;;38.42;36.25;;;;;;;13.06;100.00;101630.78;5086284;28;20503;-72
2024/03/20 10:22:28;;;;;;;32.08;30.10;;;;;;;11.49;100.00;101619.66;5089474;28;20044;-72
2024/03/20 10:24:57;;;;;;;36.38;34.17;;;;;;;13.26;100.00;101615.69;5087284;28;20446;-72
2024/03/20 10:27:24;;;;;;;32.42;30.33;;;;;;;14.06;100.00;101609.56;5095650;28;20119;-72
2024/03/20 10:29:53;;;;;;;37.47;35.28;;;;;;;11.42;100.00;101619.59;5090504;28;20056;-72
2024/03/20 10:32:20;;;;;;;37.72;35.63;;;;;;;13.19;100.00;101620.16;5089141;28;20105;-72
2024/03/20 10:34:51;;;;;;;35.28;32.95;;;;;;;11.81;100.00;101621.81;5088034;28;20075;-72
2024/03/20 10:37:18;;;;;;;36.22;34.13;;;;;;;10.57;100.00;101622.91;5084955;28;20117;-69
2024/03/20 10:39:48;;;;;;;38.03;35.70;;;;;;;11.37;100.00;101614.03;5087296;28;20058;-70
2024/03/20 10:42:16;;;;;;;37.90;35.40;;;;;;;11.52;100.00;101611.31;5087826;28;20052;-68
2024/03/20 10:44:43;;;;;;;38.88;36.53;;;;;;;11.57;100.00;101607.06;5085922;28;20040;-69
2024/03/20 10:47:11;;;;;;;37.63;35.33;;;;;;;9.62;100.00;101601.22;5087240;28;20064;-69
2024/03/20 10:49:38;;;;;;;38.40;36.10;;;;;;;12.13;100.00;101593.84;5087389;28;20048;-70
2024/03/20 10:52:04;;;;;;;40.72;38.28;;;;;;;12.59;100.00;101597.78;5082476;28;20061;-69
2024/03/20 10:54:31;;;;;;;38.17;35.75;;;;;;;11.60;100.00;101592.56;5084027;28;20081;-69
2024/03/20 10:56:57;;;;;;;42.28;39.47;;;;;;;12.78;100.00;101597.03;5087506;28;20109;-70
2024/03/20 10:59:27;;;;;;;38.50;36.10;;;;;;;14.00;100.00;101578.34;5085948;28;20044;-67
2024/03/20 11:01:58;;;;;;;48.80;46.20;;;;;;;13.18;100.00;101586.50;5086628;28;20133;-70
2024/03/20 11:04:34;;;;;;;42.97;40.47;;;;;;;13.85;100.00;101581.25;5081837;28;20071;-69
2024/03/20 11:07:01;;;;;;;41.53;38.83;;;;;;;14.86;100.00;101570.94;5085277;28;20081;-70
2024/03/20 11:09:30;;;;;;;42.15;39.55;;;;;;;14.40;100.00;101581.75;5086103;28;20043;-70
2024/03/20 11:11:56;;;;;;;38.97;36.72;;;;;;;14.88;100.00;101568.84;5087397;28;20146;-69
2024/03/20 11:14:31;;;;;;;33.95;31.55;;;;;;;14.39;100.00;101572.09;5086407;28;20044;-69
2024/03/20 11:17:02;;;;;;;39.65;36.95;;;;;;;13.80;100.00;101568.53;5085974;28;20500;-69